createdAt,value
2019-04-06T00:01:15.143Z,78.20
2019-04-06T00:03:45.147Z,78.30
2019-04-06T00:06:15.382Z,69.27
2019-04-06T00:08:45.499Z,88.17
2019-04-06T00:11:15.617Z,73.33
2019-04-06T00:13:45.737Z,69.97
2019-04-06T00:16:15.664Z,82.20
2019-04-06T00:18:45.875Z,90.03
2019-04-06T00:21:15.991Z,81.87
2019-04-06T00:23:46.111Z,81.00
2019-04-06T00:26:16.334Z,73.93
2019-04-06T00:28:46.451Z,74.97
2019-04-06T00:31:27.328Z,78.70
2019-04-06T00:33:57.652Z,78.17
2019-04-06T00:36:27.767Z,84.63
2019-04-06T00:38:57.886Z,80.13
2019-04-06T00:41:28.004Z,76.33
2019-04-06T00:43:58.123Z,78.43
2019-04-06T00:46:28.243Z,78.37
2019-04-06T00:48:58.381Z,76.00
2019-04-06T00:51:28.539Z,77.43
2019-04-06T00:53:58.836Z,82.70
2019-04-06T00:56:29.033Z,86.80
2019-04-06T00:58:59.043Z,73.17
2019-04-06T01:01:29.163Z,83.37
2019-04-06T01:03:59.491Z,77.87
2019-04-06T01:06:29.607Z,84.73
2019-04-06T01:08:59.723Z,79.37
2019-04-06T01:11:30.051Z,74.33
2019-04-06T01:14:00.066Z,75.17
2019-04-06T01:16:30.288Z,80.83
2019-04-06T01:19:00.625Z,81.70
2019-04-06T01:21:30.736Z,77.17
2019-04-06T01:24:01.889Z,75.17
2019-04-06T01:26:31.995Z,94.13
2019-04-06T01:29:02.114Z,79.00
2019-04-06T01:31:33.153Z,79.50
2019-04-06T01:34:03.279Z,81.07
2019-04-06T01:36:33.442Z,78.67
2019-04-06T01:39:05.185Z,78.73
2019-04-06T01:41:35.471Z,82.27
2019-04-06T01:44:05.592Z,78.83
2019-04-06T01:46:35.716Z,81.00
2019-04-06T01:49:05.730Z,85.13
2019-04-06T01:51:36.054Z,81.43
2019-04-06T01:54:06.071Z,75.90
2019-04-06T01:56:36.290Z,73.03
2019-04-06T01:59:06.660Z,71.43
2019-04-06T02:01:38.584Z,85.53
2019-04-06T02:04:08.608Z,81.60
2019-04-06T02:06:38.855Z,75.90
2019-04-06T02:09:09.276Z,80.23
2019-04-06T02:11:39.917Z,76.33
2019-04-06T02:14:10.096Z,83.27
2019-04-06T02:16:40.625Z,77.70
2019-04-06T02:19:10.835Z,76.63
2019-04-06T02:21:41.066Z,76.27
2019-04-06T02:24:11.389Z,76.93
2019-04-06T02:26:41.926Z,80.87
2019-04-06T02:29:11.938Z,74.67
2019-04-06T02:31:58.852Z,79.60
2019-04-06T02:34:30.507Z,83.20
2019-04-06T02:37:19.024Z,74.83
2019-04-06T02:40:08.220Z,79.57
2019-04-06T02:42:39.672Z,79.53
2019-04-06T02:45:09.788Z,75.37
2019-04-06T02:47:40.013Z,77.87
2019-04-06T02:50:10.340Z,85.23
2019-04-06T02:52:40.459Z,77.90
2019-04-06T02:55:13.651Z,73.93
2019-04-06T02:57:43.769Z,79.67
2019-04-06T03:00:14.407Z,84.50
2019-04-06T03:02:44.321Z,75.97
2019-04-06T03:05:15.094Z,82.43
2019-04-06T03:07:45.375Z,81.90
2019-04-06T03:10:15.596Z,85.00
2019-04-06T03:12:46.027Z,87.80
2019-04-06T03:15:16.138Z,82.23
2019-04-06T03:17:46.255Z,81.90
2019-04-06T03:20:16.376Z,85.17
2019-04-06T03:22:46.702Z,82.40
2019-04-06T03:25:17.021Z,100.40
2019-04-06T03:27:47.142Z,92.57
2019-04-06T03:30:17.577Z,90.70
2019-04-06T03:32:48.096Z,96.70
2019-04-06T03:35:18.214Z,94.70
2019-04-06T03:37:48.337Z,101.93
2019-04-06T03:40:18.675Z,95.60
2019-04-06T03:42:49.016Z,95.40
2019-04-06T03:45:19.232Z,101.53
2019-04-06T03:47:50.608Z,91.53
2019-04-06T03:50:21.166Z,93.70
2019-04-06T03:52:51.569Z,93.63
2019-04-06T03:55:21.727Z,85.47
2019-04-06T03:57:51.860Z,98.00
2019-04-06T04:00:22.088Z,86.87
2019-04-06T04:02:52.804Z,89.70
2019-04-06T04:05:22.977Z,91.30
2019-04-06T04:07:53.397Z,93.87
2019-04-06T04:10:35.448Z,94.43
2019-04-06T04:13:06.070Z,96.43
2019-04-06T04:15:36.109Z,85.03
2019-04-06T04:18:09.291Z,100.30
2019-04-06T04:20:39.261Z,89.53
2019-04-06T04:23:09.493Z,88.77
2019-04-06T04:25:40.238Z,92.30
2019-04-06T04:28:13.393Z,99.47
2019-04-06T04:30:43.674Z,95.33
2019-04-06T04:33:14.070Z,95.70
2019-04-06T04:35:44.538Z,94.60
2019-04-06T04:38:17.614Z,106.13
2019-04-06T04:40:47.733Z,97.10
2019-04-06T04:43:17.861Z,89.83
2019-04-06T04:45:47.869Z,104.57
2019-04-06T04:48:17.987Z,89.50
2019-04-06T04:50:48.106Z,94.27
2019-04-06T04:53:18.226Z,96.07
2019-04-06T04:55:48.553Z,89.97
2019-04-06T04:58:18.775Z,93.97
2019-04-06T05:00:48.897Z,93.17
2019-04-06T05:03:19.373Z,102.23
2019-04-06T05:05:50.754Z,92.10
2019-04-06T05:08:20.792Z,93.23
2019-04-06T05:10:50.929Z,93.57
2019-04-06T05:13:21.219Z,91.27
2019-04-06T05:15:57.183Z,93.07
2019-04-06T05:18:27.302Z,93.47
2019-04-06T05:20:57.424Z,100.87
2019-04-06T05:23:27.541Z,95.53
2019-04-06T05:25:57.735Z,96.37
2019-04-06T05:28:27.890Z,107.27
2019-04-06T05:30:57.907Z,94.17
2019-04-06T05:33:28.325Z,90.93
2019-04-06T05:35:58.487Z,92.40
2019-04-06T05:38:28.801Z,103.17
2019-04-06T05:40:58.989Z,98.30
2019-04-06T05:43:29.215Z,90.40
2019-04-06T05:45:59.335Z,92.13
2019-04-06T05:48:29.655Z,89.53
2019-04-06T05:50:59.780Z,97.10
2019-04-06T05:53:29.895Z,98.53
2019-04-06T05:56:00.013Z,92.83
2019-04-06T05:58:33.003Z,93.93
2019-04-06T06:01:04.072Z,90.73
2019-04-06T06:03:34.670Z,103.30
2019-04-06T06:06:04.950Z,106.60
2019-04-06T06:08:35.309Z,106.83
2019-04-06T06:11:05.378Z,99.83
2019-04-06T06:13:35.453Z,104.40
2019-04-06T06:16:05.777Z,97.23
2019-04-06T06:18:35.999Z,102.43
2019-04-06T06:21:06.329Z,99.83
2019-04-06T06:23:36.545Z,107.77
2019-04-06T06:26:06.879Z,102.80
2019-04-06T06:28:37.200Z,103.90
2019-04-06T06:31:07.518Z,96.10
2019-04-06T06:33:37.846Z,107.53
2019-04-06T06:36:08.060Z,103.23
2019-04-06T06:38:39.291Z,111.17
2019-04-06T06:41:09.936Z,99.07
2019-04-06T06:43:40.487Z,98.70
2019-04-06T06:46:10.792Z,105.37
2019-04-06T06:48:42.978Z,104.63
2019-04-06T06:51:12.565Z,109.53
2019-04-06T06:53:42.687Z,96.80
2019-04-06T06:56:13.114Z,106.67
2019-04-06T06:58:43.505Z,104.60
2019-04-06T07:01:14.008Z,116.20
2019-04-06T07:03:44.392Z,102.23
2019-04-06T07:06:14.515Z,104.50
2019-04-06T07:08:44.630Z,118.23
2019-04-06T07:11:14.958Z,114.90
2019-04-06T07:13:45.178Z,103.53
2019-04-06T07:16:15.707Z,100.87
2019-04-06T07:18:46.151Z,102.47
2019-04-06T07:21:19.225Z,101.47
2019-04-06T07:23:51.181Z,103.03
2019-04-06T07:26:21.408Z,106.33
2019-04-06T07:28:51.637Z,101.37
2019-04-06T07:31:22.050Z,102.77
2019-04-06T07:33:52.374Z,103.33
2019-04-06T07:36:22.495Z,100.87
2019-04-06T07:38:52.720Z,100.30
2019-04-06T07:41:23.042Z,99.10
2019-04-06T07:43:53.572Z,94.60
2019-04-06T07:46:23.847Z,93.80
2019-04-06T07:48:54.439Z,108.93
2019-04-06T07:51:24.958Z,95.23
2019-04-06T07:53:55.275Z,91.10
2019-04-06T07:56:25.495Z,91.33
2019-04-06T07:58:55.821Z,99.93
2019-04-06T08:01:29.110Z,95.77
2019-04-06T08:03:59.335Z,102.37
2019-04-06T08:06:32.126Z,97.03
2019-04-06T08:09:02.290Z,93.73
2019-04-06T08:11:35.224Z,96.27
2019-04-06T08:14:05.450Z,101.00
2019-04-06T08:16:35.569Z,105.87
2019-04-06T08:19:05.891Z,104.30
2019-04-06T08:21:36.213Z,95.37
2019-04-06T08:24:06.331Z,106.57
2019-04-06T08:26:36.448Z,138.73
2019-04-06T08:29:09.429Z,115.83
2019-04-06T08:31:44.189Z,115.93
2019-04-06T08:34:14.898Z,112.23
2019-04-06T08:36:45.118Z,110.27
2019-04-06T08:39:16.823Z,114.07
2019-04-06T08:41:46.997Z,112.57
2019-04-06T08:44:17.117Z,99.33
2019-04-06T08:46:47.233Z,100.17
2019-04-06T08:49:17.287Z,103.23
2019-04-06T08:51:47.471Z,106.00
2019-04-06T08:54:17.692Z,100.60
2019-04-06T08:56:48.019Z,91.43
2019-04-06T08:59:18.272Z,94.50
2019-04-06T09:01:48.466Z,95.50
2019-04-06T09:04:18.786Z,90.27
2019-04-06T09:06:48.904Z,93.50
2019-04-06T09:09:22.116Z,82.27
2019-04-06T09:11:52.420Z,95.30
2019-04-06T09:14:22.643Z,88.50
2019-04-06T09:16:55.732Z,79.50
2019-04-06T09:19:25.850Z,84.53
2019-04-06T09:21:55.969Z,74.70
2019-04-06T09:24:26.088Z,70.83
2019-04-06T09:26:56.207Z,71.20
2019-04-06T09:29:26.986Z,71.93
2019-04-06T09:31:57.135Z,70.47
2019-04-06T09:34:27.213Z,74.60
2019-04-06T09:36:57.503Z,67.37
2019-04-06T09:39:27.626Z,65.80
2019-04-06T09:41:58.151Z,66.30
2019-04-06T09:44:29.908Z,66.43
2019-04-06T09:47:01.897Z,62.00
2019-04-06T09:49:43.047Z,59.50
2019-04-06T09:52:20.745Z,62.47
2019-04-06T09:54:58.604Z,57.23
2019-04-06T09:57:30.507Z,55.73
2019-04-06T10:00:02.369Z,60.73
2019-04-06T10:02:36.996Z,50.73
2019-04-06T10:05:12.436Z,53.90
2019-04-06T10:07:56.694Z,48.67
2019-04-06T10:10:34.488Z,52.27
2019-04-06T10:13:06.552Z,47.57
2019-04-06T10:15:49.985Z,50.87
2019-04-06T10:18:40.205Z,46.70
2019-04-06T10:21:21.152Z,57.67
2019-04-06T10:23:58.647Z,50.27
2019-04-06T10:26:42.479Z,50.40
2019-04-06T10:29:17.308Z,49.53
2019-04-06T10:32:05.554Z,52.90
2019-04-06T10:34:40.209Z,48.93
2019-04-06T10:37:21.402Z,112.87
2019-04-06T10:39:59.506Z,373.20
2019-04-06T10:42:49.549Z,321.17
2019-04-06T10:45:27.452Z,300.37
2019-04-06T10:47:59.209Z,278.10
2019-04-06T10:50:33.630Z,259.13
2019-04-06T10:53:08.195Z,202.40
2019-04-06T10:55:46.034Z,171.47
2019-04-06T10:58:23.854Z,157.10
2019-04-06T11:01:12.200Z,160.03
2019-04-06T11:04:00.547Z,143.97
2019-04-06T11:06:35.068Z,134.47
2019-04-06T11:09:09.489Z,120.20
2019-04-06T11:11:53.443Z,115.40
2019-04-06T11:14:37.630Z,109.63
2019-04-06T11:17:09.936Z,100.73
2019-04-06T11:19:58.282Z,104.50
2019-04-06T11:22:30.076Z,89.03
2019-04-06T11:25:11.211Z,78.33
2019-04-06T11:27:59.172Z,80.53
2019-04-06T11:30:37.685Z,83.53
2019-04-06T11:33:09.444Z,70.27
2019-04-06T11:35:57.488Z,68.73
2019-04-06T11:38:32.312Z,62.63
2019-04-06T11:41:13.493Z,66.03
2019-04-06T11:43:48.320Z,67.13
2019-04-06T11:46:28.988Z,62.27
2019-04-06T11:49:00.752Z,63.80
2019-04-06T11:51:44.285Z,58.43
2019-04-06T11:54:18.804Z,67.03
2019-04-06T11:56:51.582Z,60.93
2019-04-06T11:59:23.546Z,64.30
2019-04-06T12:01:55.307Z,56.53
2019-04-06T12:04:27.153Z,57.40
2019-04-06T12:07:00.904Z,56.03
2019-04-06T12:09:35.084Z,55.97
2019-04-06T12:12:06.943Z,56.13
2019-04-06T12:14:54.263Z,53.90
2019-04-06T12:17:28.835Z,61.10
2019-04-06T12:20:12.817Z,48.90
2019-04-06T12:22:51.253Z,53.07
2019-04-06T12:25:23.441Z,57.27
2019-04-06T12:28:04.189Z,53.97
2019-04-06T12:30:37.984Z,50.80
2019-04-06T12:33:27.563Z,56.37
2019-04-06T12:35:59.320Z,54.03
2019-04-06T12:38:43.756Z,48.73
2019-04-06T12:41:18.708Z,56.23
2019-04-06T12:44:06.954Z,47.30
2019-04-06T12:46:54.922Z,54.13
2019-04-06T12:49:26.849Z,52.77
2019-04-06T12:52:04.861Z,53.17
2019-04-06T12:54:42.555Z,58.33
2019-04-06T12:57:32.660Z,57.20
2019-04-06T13:00:07.216Z,58.50
2019-04-06T13:02:48.370Z,50.37
2019-04-06T13:05:36.891Z,53.90
2019-04-06T13:08:11.518Z,53.47
2019-04-06T13:10:46.142Z,51.83
2019-04-06T13:13:27.132Z,53.80
2019-04-06T13:16:11.367Z,56.60
2019-04-06T13:18:59.843Z,46.80
2019-04-06T13:21:48.222Z,52.10
2019-04-06T13:24:22.787Z,57.77
2019-04-06T13:27:00.592Z,52.20
2019-04-06T13:29:32.752Z,53.30
2019-04-06T13:32:13.933Z,55.93
2019-04-06T13:35:02.316Z,56.63
2019-04-06T13:37:50.728Z,49.93
2019-04-06T13:40:28.622Z,56.40
2019-04-06T13:43:03.260Z,58.23
2019-04-06T13:45:47.095Z,54.73
2019-04-06T13:48:27.665Z,50.90
2019-04-06T13:51:16.107Z,51.27
2019-04-06T13:53:56.984Z,49.53
2019-04-06T13:56:44.711Z,52.63
2019-04-06T13:59:34.493Z,58.40
2019-04-06T14:02:18.336Z,52.30
2019-04-06T14:04:53.237Z,53.57
2019-04-06T14:07:34.139Z,58.80
2019-04-06T14:10:13.583Z,51.67
2019-04-06T14:12:51.293Z,54.60
2019-04-06T14:15:28.762Z,55.87
2019-04-06T14:18:13.218Z,54.27
2019-04-06T14:20:48.133Z,56.90
2019-04-06T14:23:23.389Z,53.47
2019-04-06T14:26:10.616Z,49.97
2019-04-06T14:28:42.367Z,54.23
2019-04-06T14:31:27.908Z,52.07
2019-04-06T14:33:53.254Z,56.73
2019-04-06T14:36:25.119Z,52.90
2019-04-06T14:39:00.148Z,54.93
2019-04-06T14:41:40.919Z,59.53
2019-04-06T14:44:27.834Z,48.63
2019-04-06T14:46:59.584Z,51.40
2019-04-06T14:49:37.085Z,53.57
2019-04-06T14:52:08.841Z,48.07
2019-04-06T14:54:41.096Z,56.10
2019-04-06T14:57:13.462Z,54.23
2019-04-06T14:59:48.414Z,57.93
2019-04-06T15:02:30.164Z,59.97
2019-04-06T15:05:05.141Z,57.70
2019-04-06T15:07:53.693Z,52.50
2019-04-06T15:10:40.910Z,60.30
2019-04-06T15:13:13.082Z,60.87
2019-04-06T15:15:47.906Z,64.50
2019-04-06T15:18:36.355Z,54.20
2019-04-06T15:21:24.505Z,62.33
2019-04-06T15:24:05.473Z,68.57
2019-04-06T15:26:43.130Z,56.80
2019-04-06T15:29:17.869Z,60.70
2019-04-06T15:31:51.299Z,60.37
2019-04-06T15:34:29.018Z,56.33
2019-04-06T15:37:01.023Z,62.13
2019-04-06T15:39:33.021Z,63.33
2019-04-06T15:42:13.587Z,66.37
2019-04-06T15:45:01.624Z,69.20
2019-04-06T15:47:50.785Z,64.00
2019-04-06T15:50:34.732Z,66.90
2019-04-06T15:53:16.156Z,63.30
2019-04-06T15:55:56.882Z,72.83
2019-04-06T15:58:37.451Z,74.90
2019-04-06T16:01:21.501Z,66.77
2019-04-06T16:03:53.765Z,68.47
2019-04-06T16:06:34.531Z,66.47
2019-04-06T16:09:24.516Z,69.60
2019-04-06T16:12:11.811Z,66.37
2019-04-06T16:14:47.074Z,69.80
2019-04-06T16:17:23.809Z,63.70
2019-04-06T16:19:54.712Z,72.97
2019-04-06T16:22:26.650Z,69.50
2019-04-06T16:25:01.583Z,65.10
2019-04-06T16:27:50.576Z,68.70
2019-04-06T16:30:22.503Z,70.03
2019-04-06T16:33:00.181Z,70.10
2019-04-06T16:35:32.175Z,68.17
2019-04-06T16:38:16.503Z,65.63
2019-04-06T16:40:51.760Z,68.70
2019-04-06T16:43:39.939Z,66.37
2019-04-06T16:46:28.046Z,73.33
2019-04-06T16:49:00.002Z,67.17
2019-04-06T16:51:31.795Z,70.17
2019-04-06T16:54:03.622Z,70.77
2019-04-06T16:56:44.599Z,62.67
2019-04-06T16:59:16.564Z,71.60
2019-04-06T17:02:00.338Z,72.03
2019-04-06T17:04:35.435Z,70.23
2019-04-06T17:07:10.207Z,70.67
2019-04-06T17:09:42.019Z,72.03
2019-04-06T17:12:32.211Z,64.90
2019-04-06T17:15:20.660Z,64.10
2019-04-06T17:17:52.651Z,68.47
2019-04-06T17:20:27.355Z,64.40
2019-04-06T17:23:01.973Z,67.03
2019-04-06T17:25:48.783Z,65.50
2019-04-06T17:28:29.354Z,68.97
2019-04-06T17:31:19.655Z,66.53
2019-04-06T17:33:57.437Z,66.27
2019-04-06T17:36:38.635Z,65.33
2019-04-06T17:39:25.757Z,68.53
2019-04-06T17:42:06.953Z,60.70
2019-04-06T17:44:58.819Z,66.47
2019-04-06T17:47:37.236Z,63.07
2019-04-06T17:50:15.162Z,66.83
2019-04-06T17:52:53.251Z,64.50
2019-04-06T17:55:34.633Z,66.63
2019-04-06T17:58:18.921Z,69.23
2019-04-06T18:01:07.210Z,67.03
2019-04-06T18:03:48.605Z,60.77
2019-04-06T18:06:36.882Z,71.80
2019-04-06T18:09:25.793Z,65.23
2019-04-06T18:11:57.732Z,66.00
2019-04-06T18:14:28.030Z,63.40
2019-04-06T18:17:00.904Z,67.90
2019-04-06T18:19:34.794Z,65.10
2019-04-06T18:22:05.237Z,64.47
2019-04-06T18:24:35.562Z,66.17
2019-04-06T18:27:05.981Z,62.33
2019-04-06T18:29:36.664Z,67.20
2019-04-06T18:32:08.582Z,67.93
2019-04-06T18:34:38.818Z,62.50
2019-04-06T18:37:11.233Z,63.73
2019-04-06T18:39:44.881Z,68.70
2019-04-06T18:42:15.413Z,61.97
2019-04-06T18:44:45.834Z,66.73
2019-04-06T18:47:16.501Z,69.73
2019-04-06T18:49:46.898Z,55.13
2019-04-06T18:52:17.118Z,55.20
2019-04-06T18:54:47.234Z,62.77
2019-04-06T18:57:17.455Z,55.50
2019-04-06T18:59:47.774Z,53.90
2019-04-06T19:02:18.105Z,52.07
2019-04-06T19:04:48.648Z,58.00
2019-04-06T19:07:19.149Z,52.80
2019-04-06T19:09:49.754Z,49.80
2019-04-06T19:12:20.126Z,53.97
2019-04-06T19:14:50.832Z,49.40
2019-04-06T19:17:21.337Z,50.47
2019-04-06T19:19:51.551Z,46.63
2019-04-06T19:22:21.723Z,50.27
2019-04-06T19:24:52.159Z,55.30
2019-04-06T19:27:22.775Z,53.33
2019-04-06T19:29:53.207Z,53.57
2019-04-06T19:32:23.425Z,46.80
2019-04-06T19:34:53.749Z,53.50
2019-04-06T19:37:23.894Z,50.90
2019-04-06T19:39:54.193Z,61.40
2019-04-06T19:42:24.857Z,53.73
2019-04-06T19:44:55.340Z,46.80
2019-04-06T19:47:25.470Z,51.17
2019-04-06T19:49:55.694Z,56.70
2019-04-06T19:52:28.510Z,47.43
2019-04-06T19:54:58.644Z,47.73
2019-04-06T19:57:28.859Z,44.67
2019-04-06T19:59:59.142Z,50.77
2019-04-06T20:02:31.631Z,50.43
2019-04-06T20:05:02.052Z,50.73
2019-04-06T20:07:32.185Z,47.80
2019-04-06T20:10:02.704Z,47.63
2019-04-06T20:12:33.218Z,47.63
2019-04-06T20:15:03.979Z,43.70
2019-04-06T20:17:34.277Z,48.57
2019-04-06T20:20:06.648Z,49.20
2019-04-06T20:22:36.766Z,48.23
2019-04-06T20:25:08.268Z,48.83
2019-04-06T20:27:38.849Z,46.57
2019-04-06T20:30:11.264Z,46.73
2019-04-06T20:32:41.441Z,45.17
2019-04-06T20:35:11.985Z,52.80
2019-04-06T20:37:42.283Z,49.10
2019-04-06T20:40:14.099Z,48.53
2019-04-06T20:42:44.799Z,43.00
2019-04-06T20:45:15.651Z,52.03
2019-04-06T20:47:45.951Z,53.50
2019-04-06T20:50:16.870Z,48.13
2019-04-06T20:52:47.211Z,47.37
2019-04-06T20:55:17.908Z,53.73
2019-04-06T20:57:48.427Z,50.87
2019-04-06T21:00:18.926Z,49.73
2019-04-06T21:02:49.151Z,45.63
2019-04-06T21:05:19.549Z,55.10
2019-04-06T21:07:49.764Z,49.53
2019-04-06T21:10:20.194Z,53.83
2019-04-06T21:12:50.873Z,46.90
2019-04-06T21:15:21.449Z,45.43
2019-04-06T21:17:51.985Z,53.70
2019-04-06T21:20:22.206Z,47.50
2019-04-06T21:22:52.529Z,47.13
2019-04-06T21:25:23.354Z,49.80
2019-04-06T21:27:53.790Z,51.30
2019-04-06T21:30:24.479Z,52.60
2019-04-06T21:32:54.649Z,56.83
2019-04-06T21:35:24.866Z,52.57
2019-04-06T21:37:55.091Z,54.23
2019-04-06T21:40:25.207Z,53.80
2019-04-06T21:42:55.325Z,47.43
2019-04-06T21:45:26.131Z,49.43
2019-04-06T21:47:56.383Z,48.50
2019-04-06T21:50:26.503Z,49.23
2019-04-06T21:52:56.623Z,50.80
2019-04-06T21:55:27.204Z,47.17
2019-04-06T21:57:57.682Z,51.60
2019-04-06T22:00:45.737Z,52.87
2019-04-06T22:03:16.663Z,49.87
2019-04-06T22:05:47.580Z,58.73
2019-04-06T22:08:18.727Z,56.10
2019-04-06T22:10:49.112Z,47.73
2019-04-06T22:13:19.529Z,48.13
2019-04-06T22:15:49.811Z,49.37
2019-04-06T22:18:20.368Z,49.67
2019-04-06T22:20:51.244Z,52.80
2019-04-06T22:23:22.535Z,55.83
2019-04-06T22:25:53.610Z,54.53
2019-04-06T22:28:24.461Z,47.93
2019-04-06T22:30:57.797Z,49.53
2019-04-06T22:33:27.919Z,56.60
2019-04-06T22:35:58.491Z,52.60
2019-04-06T22:38:28.780Z,52.37
2019-04-06T22:40:59.093Z,54.93
2019-04-06T22:43:29.444Z,54.63
2019-04-06T22:45:59.928Z,46.90
2019-04-06T22:48:30.170Z,47.57
2019-04-06T22:51:00.286Z,47.30
2019-04-06T22:53:30.533Z,49.53
2019-04-06T22:56:00.914Z,50.20
2019-04-06T22:58:32.100Z,51.43
2019-04-06T23:01:03.938Z,50.37
2019-04-06T23:03:48.201Z,54.83
2019-04-06T23:06:26.198Z,49.03
2019-04-06T23:08:56.384Z,50.70
2019-04-06T23:11:26.638Z,51.97
2019-04-06T23:13:56.756Z,51.00
2019-04-06T23:16:27.874Z,47.80
2019-04-06T23:18:58.162Z,51.20
2019-04-06T23:21:30.510Z,46.50
2019-04-06T23:24:03.039Z,47.80
2019-04-06T23:26:32.834Z,58.03
2019-04-06T23:29:03.493Z,45.27
2019-04-06T23:31:33.736Z,51.70
2019-04-06T23:34:05.443Z,52.30
2019-04-06T23:36:36.223Z,56.33
2019-04-06T23:39:09.227Z,53.63
2019-04-06T23:41:42.797Z,54.27
2019-04-06T23:44:13.343Z,47.60
2019-04-06T23:46:43.669Z,51.17
2019-04-06T23:49:13.789Z,53.77
2019-04-06T23:51:43.903Z,55.20
2019-04-06T23:54:17.094Z,49.63
2019-04-06T23:56:47.555Z,51.70
2019-04-06T23:59:17.951Z,54.70
